sensor_id;sensor_type;location;lat;lon;timestamp;P1;durP1;ratioP1;P2;durP2;ratioP2
70320;SDS011;61127;55.826;37.046;2023-06-26T00:01:24;26.40;;;18.77;;
70320;SDS011;61127;55.826;37.046;2023-06-26T00:03:55;29.33;;;18.17;;
70320;SDS011;61127;55.826;37.046;2023-06-26T00:06:21;25.17;;;16.73;;
70320;SDS011;61127;55.826;37.046;2023-06-26T00:08:50;29.17;;;17.27;;
70320;SDS011;61127;55.826;37.046;2023-06-26T00:11:16;25.13;;;16.48;;
70320;SDS011;61127;55.826;37.046;2023-06-26T00:13:42;25.52;;;15.40;;
70320;SDS011;61127;55.826;37.046;2023-06-26T00:16:08;21.70;;;14.70;;
70320;SDS011;61127;55.826;37.046;2023-06-26T00:18:34;24.00;;;15.75;;
70320;SDS011;61127;55.826;37.046;2023-06-26T00:21:00;28.00;;;15.35;;
70320;SDS011;61127;55.826;37.046;2023-06-26T00:23:26;25.33;;;15.55;;
70320;SDS011;61127;55.826;37.046;2023-06-26T00:25:57;22.80;;;15.48;;
70320;SDS011;61127;55.826;37.046;2023-06-26T00:28:23;23.80;;;16.23;;
70320;SDS011;61127;55.826;37.046;2023-06-26T00:30:49;22.50;;;16.15;;
70320;SDS011;61127;55.826;37.046;2023-06-26T00:33:15;22.90;;;14.55;;
70320;SDS011;61127;55.826;37.046;2023-06-26T00:35:42;18.63;;;12.32;;
70320;SDS011;61127;55.826;37.046;2023-06-26T00:38:10;21.13;;;12.70;;
70320;SDS011;61127;55.826;37.046;2023-06-26T00:40:37;18.95;;;11.65;;
70320;SDS011;61127;55.826;37.046;2023-06-26T00:43:03;19.27;;;13.02;;
70320;SDS011;61127;55.826;37.046;2023-06-26T00:45:29;18.80;;;12.55;;
70320;SDS011;61127;55.826;37.046;2023-06-26T00:47:55;17.92;;;12.07;;
70320;SDS011;61127;55.826;37.046;2023-06-26T00:50:22;20.37;;;12.33;;
70320;SDS011;61127;55.826;37.046;2023-06-26T00:52:48;17.98;;;12.55;;
70320;SDS011;61127;55.826;37.046;2023-06-26T00:55:14;17.83;;;11.48;;
70320;SDS011;61127;55.826;37.046;2023-06-26T00:57:42;20.67;;;11.90;;
70320;SDS011;61127;55.826;37.046;2023-06-26T01:00:11;18.30;;;12.00;;
70320;SDS011;61127;55.826;37.046;2023-06-26T01:02:38;24.52;;;14.75;;
70320;SDS011;61127;55.826;37.046;2023-06-26T01:05:04;19.15;;;12.70;;
70320;SDS011;61127;55.826;37.046;2023-06-26T01:07:35;19.55;;;12.73;;
70320;SDS011;61127;55.826;37.046;2023-06-26T01:10:03;18.55;;;11.63;;
70320;SDS011;61127;55.826;37.046;2023-06-26T01:12:31;19.77;;;11.23;;
70320;SDS011;61127;55.826;37.046;2023-06-26T01:14:59;17.23;;;11.48;;
70320;SDS011;61127;55.826;37.046;2023-06-26T01:17:26;19.50;;;11.88;;
70320;SDS011;61127;55.826;37.046;2023-06-26T01:19:58;25.30;;;15.25;;
70320;SDS011;61127;55.826;37.046;2023-06-26T01:22:34;25.25;;;14.85;;
70320;SDS011;61127;55.826;37.046;2023-06-26T01:28:07;18.63;;;11.20;;
70320;SDS011;61127;55.826;37.046;2023-06-26T01:30:34;18.63;;;12.07;;
70320;SDS011;61127;55.826;37.046;2023-06-26T01:33:05;17.75;;;11.23;;
70320;SDS011;61127;55.826;37.046;2023-06-26T01:35:31;20.48;;;11.30;;
70320;SDS011;61127;55.826;37.046;2023-06-26T01:40:42;17.98;;;11.65;;
70320;SDS011;61127;55.826;37.046;2023-06-26T01:45:59;16.00;;;10.90;;
70320;SDS011;61127;55.826;37.046;2023-06-26T01:48:34;19.17;;;10.80;;
70320;SDS011;61127;55.826;37.046;2023-06-26T01:51:09;17.47;;;11.43;;
70320;SDS011;61127;55.826;37.046;2023-06-26T01:53:38;20.00;;;11.90;;
70320;SDS011;61127;55.826;37.046;2023-06-26T01:56:13;19.55;;;13.05;;
70320;SDS011;61127;55.826;37.046;2023-06-26T01:58:43;19.63;;;13.25;;
70320;SDS011;61127;55.826;37.046;2023-06-26T02:01:11;17.42;;;11.52;;
70320;SDS011;61127;55.826;37.046;2023-06-26T02:03:37;18.97;;;11.47;;
70320;SDS011;61127;55.826;37.046;2023-06-26T02:06:03;17.23;;;11.40;;
70320;SDS011;61127;55.826;37.046;2023-06-26T02:08:29;17.40;;;11.15;;
70320;SDS011;61127;55.826;37.046;2023-06-26T02:10:56;15.40;;;11.30;;
70320;SDS011;61127;55.826;37.046;2023-06-26T02:13:24;20.40;;;11.48;;
70320;SDS011;61127;55.826;37.046;2023-06-26T02:15:51;19.30;;;11.60;;
70320;SDS011;61127;55.826;37.046;2023-06-26T02:18:17;22.15;;;11.90;;
70320;SDS011;61127;55.826;37.046;2023-06-26T02:20:43;18.65;;;12.07;;
70320;SDS011;61127;55.826;37.046;2023-06-26T02:23:09;21.03;;;12.40;;
70320;SDS011;61127;55.826;37.046;2023-06-26T02:25:35;18.48;;;11.85;;
70320;SDS011;61127;55.826;37.046;2023-06-26T02:28:02;16.90;;;10.98;;
70320;SDS011;61127;55.826;37.046;2023-06-26T02:30:27;16.67;;;11.20;;
70320;SDS011;61127;55.826;37.046;2023-06-26T02:32:53;18.63;;;11.63;;
70320;SDS011;61127;55.826;37.046;2023-06-26T02:35:19;18.08;;;11.57;;
70320;SDS011;61127;55.826;37.046;2023-06-26T02:37:45;18.92;;;10.82;;
70320;SDS011;61127;55.826;37.046;2023-06-26T02:40:12;23.17;;;12.00;;
70320;SDS011;61127;55.826;37.046;2023-06-26T02:42:40;19.88;;;11.35;;
70320;SDS011;61127;55.826;37.046;2023-06-26T02:45:06;18.02;;;11.75;;
70320;SDS011;61127;55.826;37.046;2023-06-26T02:47:33;20.08;;;11.93;;
70320;SDS011;61127;55.826;37.046;2023-06-26T02:49:59;20.10;;;11.73;;
70320;SDS011;61127;55.826;37.046;2023-06-26T02:52:29;21.20;;;11.65;;
70320;SDS011;61127;55.826;37.046;2023-06-26T02:54:55;20.00;;;12.40;;
70320;SDS011;61127;55.826;37.046;2023-06-26T02:57:21;18.13;;;11.43;;
70320;SDS011;61127;55.826;37.046;2023-06-26T02:59:48;17.95;;;11.50;;
70320;SDS011;61127;55.826;37.046;2023-06-26T03:02:14;20.77;;;11.37;;
70320;SDS011;61127;55.826;37.046;2023-06-26T03:04:44;20.88;;;12.13;;
70320;SDS011;61127;55.826;37.046;2023-06-26T03:07:12;23.40;;;11.65;;
70320;SDS011;61127;55.826;37.046;2023-06-26T03:09:40;18.08;;;11.05;;
70320;SDS011;61127;55.826;37.046;2023-06-26T03:12:07;19.95;;;11.52;;
70320;SDS011;61127;55.826;37.046;2023-06-26T03:14:33;21.63;;;11.50;;
70320;SDS011;61127;55.826;37.046;2023-06-26T03:17:00;16.92;;;11.18;;
70320;SDS011;61127;55.826;37.046;2023-06-26T03:19:31;16.85;;;11.15;;
70320;SDS011;61127;55.826;37.046;2023-06-26T03:22:20;24.98;;;11.57;;
70320;SDS011;61127;55.826;37.046;2023-06-26T03:24:46;17.15;;;11.30;;
70320;SDS011;61127;55.826;37.046;2023-06-26T03:27:13;19.03;;;11.53;;
70320;SDS011;61127;55.826;37.046;2023-06-26T03:29:39;21.90;;;12.20;;
70320;SDS011;61127;55.826;37.046;2023-06-26T03:32:06;21.55;;;11.23;;
70320;SDS011;61127;55.826;37.046;2023-06-26T03:34:33;16.02;;;11.35;;
70320;SDS011;61127;55.826;37.046;2023-06-26T03:36:59;21.90;;;10.88;;
70320;SDS011;61127;55.826;37.046;2023-06-26T03:39:25;18.33;;;11.03;;
70320;SDS011;61127;55.826;37.046;2023-06-26T03:41:51;20.63;;;10.98;;
70320;SDS011;61127;55.826;37.046;2023-06-26T03:44:19;21.55;;;11.70;;
70320;SDS011;61127;55.826;37.046;2023-06-26T03:46:47;18.65;;;11.05;;
70320;SDS011;61127;55.826;37.046;2023-06-26T03:49:13;17.30;;;11.03;;
70320;SDS011;61127;55.826;37.046;2023-06-26T03:51:39;17.67;;;11.30;;
70320;SDS011;61127;55.826;37.046;2023-06-26T03:54:05;19.17;;;11.63;;
70320;SDS011;61127;55.826;37.046;2023-06-26T03:56:31;18.77;;;11.10;;
70320;SDS011;61127;55.826;37.046;2023-06-26T03:58:57;19.00;;;11.27;;
70320;SDS011;61127;55.826;37.046;2023-06-26T04:01:26;19.58;;;11.02;;
70320;SDS011;61127;55.826;37.046;2023-06-26T04:03:53;19.95;;;11.82;;
70320;SDS011;61127;55.826;37.046;2023-06-26T04:06:19;20.63;;;11.95;;
70320;SDS011;61127;55.826;37.046;2023-06-26T04:08:45;18.80;;;11.67;;
70320;SDS011;61127;55.826;37.046;2023-06-26T04:11:12;18.45;;;11.50;;
70320;SDS011;61127;55.826;37.046;2023-06-26T04:13:38;21.65;;;11.57;;
70320;SDS011;61127;55.826;37.046;2023-06-26T04:16:04;16.65;;;11.00;;
70320;SDS011;61127;55.826;37.046;2023-06-26T04:18:31;20.00;;;11.38;;
70320;SDS011;61127;55.826;37.046;2023-06-26T04:21:07;16.43;;;10.80;;
70320;SDS011;61127;55.826;37.046;2023-06-26T04:23:37;21.10;;;11.95;;
70320;SDS011;61127;55.826;37.046;2023-06-26T04:26:04;20.27;;;10.65;;
70320;SDS011;61127;55.826;37.046;2023-06-26T04:28:34;19.80;;;11.48;;
70320;SDS011;61127;55.826;37.046;2023-06-26T04:31:01;20.40;;;11.88;;
70320;SDS011;61127;55.826;37.046;2023-06-26T04:33:30;16.97;;;10.70;;
70320;SDS011;61127;55.826;37.046;2023-06-26T04:35:57;16.73;;;10.98;;
70320;SDS011;61127;55.826;37.046;2023-06-26T04:38:23;19.13;;;11.93;;
70320;SDS011;61127;55.826;37.046;2023-06-26T04:40:49;17.70;;;11.77;;
70320;SDS011;61127;55.826;37.046;2023-06-26T04:43:15;17.40;;;10.93;;
70320;SDS011;61127;55.826;37.046;2023-06-26T04:45:41;19.63;;;11.10;;
70320;SDS011;61127;55.826;37.046;2023-06-26T04:48:07;18.63;;;11.40;;
70320;SDS011;61127;55.826;37.046;2023-06-26T04:50:34;20.63;;;11.40;;
70320;SDS011;61127;55.826;37.046;2023-06-26T04:53:00;19.23;;;11.70;;
70320;SDS011;61127;55.826;37.046;2023-06-26T04:55:27;16.10;;;10.13;;
70320;SDS011;61127;55.826;37.046;2023-06-26T04:57:53;17.60;;;10.98;;
70320;SDS011;61127;55.826;37.046;2023-06-26T05:00:19;20.73;;;11.13;;
70320;SDS011;61127;55.826;37.046;2023-06-26T05:02:45;15.30;;;10.10;;
70320;SDS011;61127;55.826;37.046;2023-06-26T05:05:11;22.15;;;10.80;;
70320;SDS011;61127;55.826;37.046;2023-06-26T05:07:37;16.85;;;10.27;;
70320;SDS011;61127;55.826;37.046;2023-06-26T05:10:04;15.20;;;10.70;;
70320;SDS011;61127;55.826;37.046;2023-06-26T05:12:31;17.83;;;10.20;;
70320;SDS011;61127;55.826;37.046;2023-06-26T05:14:57;19.93;;;10.73;;
70320;SDS011;61127;55.826;37.046;2023-06-26T05:17:23;17.25;;;9.35;;
70320;SDS011;61127;55.826;37.046;2023-06-26T05:19:49;17.23;;;9.90;;
70320;SDS011;61127;55.826;37.046;2023-06-26T05:22:15;17.70;;;9.63;;
70320;SDS011;61127;55.826;37.046;2023-06-26T05:24:42;18.17;;;9.97;;
70320;SDS011;61127;55.826;37.046;2023-06-26T05:27:11;15.13;;;9.27;;
70320;SDS011;61127;55.826;37.046;2023-06-26T05:29:44;14.10;;;9.90;;
70320;SDS011;61127;55.826;37.046;2023-06-26T05:32:11;14.63;;;9.40;;
70320;SDS011;61127;55.826;37.046;2023-06-26T05:34:40;12.88;;;9.23;;
70320;SDS011;61127;55.826;37.046;2023-06-26T05:37:07;14.10;;;9.07;;
70320;SDS011;61127;55.826;37.046;2023-06-26T05:39:34;14.77;;;8.30;;
70320;SDS011;61127;55.826;37.046;2023-06-26T05:42:00;18.63;;;9.00;;
70320;SDS011;61127;55.826;37.046;2023-06-26T05:44:26;15.77;;;8.73;;
70320;SDS011;61127;55.826;37.046;2023-06-26T05:46:53;18.35;;;8.57;;
70320;SDS011;61127;55.826;37.046;2023-06-26T05:49:18;17.33;;;8.17;;
70320;SDS011;61127;55.826;37.046;2023-06-26T05:51:45;12.48;;;7.32;;
70320;SDS011;61127;55.826;37.046;2023-06-26T05:54:11;15.20;;;6.90;;
70320;SDS011;61127;55.826;37.046;2023-06-26T05:56:38;10.00;;;6.53;;
70320;SDS011;61127;55.826;37.046;2023-06-26T05:59:04;9.27;;;6.30;;
70320;SDS011;61127;55.826;37.046;2023-06-26T06:01:32;10.70;;;6.13;;
70320;SDS011;61127;55.826;37.046;2023-06-26T06:03:59;10.30;;;6.40;;
70320;SDS011;61127;55.826;37.046;2023-06-26T06:06:25;14.25;;;6.15;;
70320;SDS011;61127;55.826;37.046;2023-06-26T06:08:51;10.03;;;6.20;;
70320;SDS011;61127;55.826;37.046;2023-06-26T06:11:17;10.40;;;6.05;;
70320;SDS011;61127;55.826;37.046;2023-06-26T06:13:43;9.60;;;5.82;;
70320;SDS011;61127;55.826;37.046;2023-06-26T06:16:09;9.60;;;5.87;;
70320;SDS011;61127;55.826;37.046;2023-06-26T06:18:35;10.45;;;6.05;;
70320;SDS011;61127;55.826;37.046;2023-06-26T06:21:01;9.43;;;5.63;;
70320;SDS011;61127;55.826;37.046;2023-06-26T06:23:27;9.18;;;5.65;;
70320;SDS011;61127;55.826;37.046;2023-06-26T06:25:53;7.83;;;5.60;;
70320;SDS011;61127;55.826;37.046;2023-06-26T06:28:19;8.73;;;5.75;;
70320;SDS011;61127;55.826;37.046;2023-06-26T06:30:45;9.43;;;5.90;;
70320;SDS011;61127;55.826;37.046;2023-06-26T06:33:13;10.38;;;6.50;;
70320;SDS011;61127;55.826;37.046;2023-06-26T06:35:39;8.97;;;5.77;;
70320;SDS011;61127;55.826;37.046;2023-06-26T06:38:06;11.00;;;6.20;;
70320;SDS011;61127;55.826;37.046;2023-06-26T06:40:32;10.45;;;6.45;;
70320;SDS011;61127;55.826;37.046;2023-06-26T06:42:58;7.85;;;5.30;;
70320;SDS011;61127;55.826;37.046;2023-06-26T06:45:24;10.00;;;7.23;;
70320;SDS011;61127;55.826;37.046;2023-06-26T06:47:50;9.33;;;6.37;;
70320;SDS011;61127;55.826;37.046;2023-06-26T06:50:15;10.95;;;6.47;;
70320;SDS011;61127;55.826;37.046;2023-06-26T06:52:43;10.27;;;6.88;;
70320;SDS011;61127;55.826;37.046;2023-06-26T06:55:09;10.53;;;6.90;;
70320;SDS011;61127;55.826;37.046;2023-06-26T06:57:35;12.35;;;7.60;;
70320;SDS011;61127;55.826;37.046;2023-06-26T07:00:04;10.32;;;6.13;;
70320;SDS011;61127;55.826;37.046;2023-06-26T07:02:37;15.02;;;7.50;;
70320;SDS011;61127;55.826;37.046;2023-06-26T07:05:05;12.30;;;7.28;;
70320;SDS011;61127;55.826;37.046;2023-06-26T07:07:32;10.30;;;6.47;;
70320;SDS011;61127;55.826;37.046;2023-06-26T07:10:00;12.02;;;6.55;;
70320;SDS011;61127;55.826;37.046;2023-06-26T07:12:31;10.30;;;6.53;;
70320;SDS011;61127;55.826;37.046;2023-06-26T07:14:57;10.73;;;6.18;;
70320;SDS011;61127;55.826;37.046;2023-06-26T07:17:24;7.43;;;5.70;;
70320;SDS011;61127;55.826;37.046;2023-06-26T07:19:50;7.37;;;5.07;;
70320;SDS011;61127;55.826;37.046;2023-06-26T07:22:16;7.78;;;5.13;;
70320;SDS011;61127;55.826;37.046;2023-06-26T07:24:42;8.07;;;5.10;;
70320;SDS011;61127;55.826;37.046;2023-06-26T07:27:08;9.50;;;5.00;;
70320;SDS011;61127;55.826;37.046;2023-06-26T07:29:35;7.63;;;5.27;;
70320;SDS011;61127;55.826;37.046;2023-06-26T07:32:01;7.68;;;5.38;;
70320;SDS011;61127;55.826;37.046;2023-06-26T07:34:26;6.07;;;4.50;;
70320;SDS011;61127;55.826;37.046;2023-06-26T07:36:53;7.45;;;5.18;;
70320;SDS011;61127;55.826;37.046;2023-06-26T07:39:19;8.20;;;5.15;;
70320;SDS011;61127;55.826;37.046;2023-06-26T07:41:46;7.37;;;5.27;;
70320;SDS011;61127;55.826;37.046;2023-06-26T07:44:11;7.65;;;5.18;;
70320;SDS011;61127;55.826;37.046;2023-06-26T07:46:38;6.63;;;4.90;;
70320;SDS011;61127;55.826;37.046;2023-06-26T07:49:04;6.97;;;4.30;;
70320;SDS011;61127;55.826;37.046;2023-06-26T07:51:30;7.40;;;4.90;;
70320;SDS011;61127;55.826;37.046;2023-06-26T07:53:56;6.50;;;4.82;;
70320;SDS011;61127;55.826;37.046;2023-06-26T07:56:22;7.60;;;5.18;;
70320;SDS011;61127;55.826;37.046;2023-06-26T07:58:48;8.73;;;4.95;;
70320;SDS011;61127;55.826;37.046;2023-06-26T08:01:14;6.97;;;4.70;;
70320;SDS011;61127;55.826;37.046;2023-06-26T08:03:40;6.65;;;5.03;;
70320;SDS011;61127;55.826;37.046;2023-06-26T08:06:06;5.88;;;4.30;;
70320;SDS011;61127;55.826;37.046;2023-06-26T08:08:32;6.30;;;4.30;;
70320;SDS011;61127;55.826;37.046;2023-06-26T08:10:58;7.37;;;4.50;;
70320;SDS011;61127;55.826;37.046;2023-06-26T08:13:24;6.35;;;4.45;;
70320;SDS011;61127;55.826;37.046;2023-06-26T08:15:50;5.80;;;4.50;;
70320;SDS011;61127;55.826;37.046;2023-06-26T08:18:17;6.88;;;4.70;;
70320;SDS011;61127;55.826;37.046;2023-06-26T08:20:44;7.90;;;4.88;;
70320;SDS011;61127;55.826;37.046;2023-06-26T08:23:09;6.70;;;4.70;;
70320;SDS011;61127;55.826;37.046;2023-06-26T08:25:35;6.45;;;4.80;;
70320;SDS011;61127;55.826;37.046;2023-06-26T08:28:01;8.80;;;5.00;;
70320;SDS011;61127;55.826;37.046;2023-06-26T08:30:28;6.63;;;4.93;;
70320;SDS011;61127;55.826;37.046;2023-06-26T08:32:57;8.30;;;4.90;;
70320;SDS011;61127;55.826;37.046;2023-06-26T08:35:23;7.32;;;5.10;;
70320;SDS011;61127;55.826;37.046;2023-06-26T08:37:50;7.85;;;5.10;;
70320;SDS011;61127;55.826;37.046;2023-06-26T08:40:17;8.18;;;5.55;;
70320;SDS011;61127;55.826;37.046;2023-06-26T08:42:46;8.98;;;5.50;;
70320;SDS011;61127;55.826;37.046;2023-06-26T08:45:12;7.07;;;5.20;;
70320;SDS011;61127;55.826;37.046;2023-06-26T08:47:39;8.95;;;4.95;;
70320;SDS011;61127;55.826;37.046;2023-06-26T08:50:10;7.43;;;5.18;;
70320;SDS011;61127;55.826;37.046;2023-06-26T08:52:53;10.43;;;5.43;;
70320;SDS011;61127;55.826;37.046;2023-06-26T08:55:26;7.80;;;5.30;;
70320;SDS011;61127;55.826;37.046;2023-06-26T08:57:54;8.48;;;5.28;;
70320;SDS011;61127;55.826;37.046;2023-06-26T09:00:20;7.35;;;5.38;;
70320;SDS011;61127;55.826;37.046;2023-06-26T09:02:46;7.60;;;4.65;;
70320;SDS011;61127;55.826;37.046;2023-06-26T09:05:12;6.97;;;5.05;;
70320;SDS011;61127;55.826;37.046;2023-06-26T09:07:38;7.87;;;4.50;;
70320;SDS011;61127;55.826;37.046;2023-06-26T09:10:04;7.55;;;4.95;;
70320;SDS011;61127;55.826;37.046;2023-06-26T09:12:31;8.10;;;4.97;;
70320;SDS011;61127;55.826;37.046;2023-06-26T09:14:56;11.55;;;5.65;;
70320;SDS011;61127;55.826;37.046;2023-06-26T09:17:29;10.05;;;5.00;;
70320;SDS011;61127;55.826;37.046;2023-06-26T09:19:56;8.97;;;5.63;;
70320;SDS011;61127;55.826;37.046;2023-06-26T09:22:23;7.65;;;5.50;;
70320;SDS011;61127;55.826;37.046;2023-06-26T09:24:49;7.30;;;5.30;;
70320;SDS011;61127;55.826;37.046;2023-06-26T09:27:16;10.95;;;5.20;;
70320;SDS011;61127;55.826;37.046;2023-06-26T09:29:45;8.73;;;5.43;;
70320;SDS011;61127;55.826;37.046;2023-06-26T09:32:13;7.40;;;5.60;;
70320;SDS011;61127;55.826;37.046;2023-06-26T09:34:40;6.90;;;5.03;;
70320;SDS011;61127;55.826;37.046;2023-06-26T09:37:08;8.82;;;5.20;;
70320;SDS011;61127;55.826;37.046;2023-06-26T09:39:34;9.27;;;5.38;;
70320;SDS011;61127;55.826;37.046;2023-06-26T09:42:00;10.23;;;5.63;;
70320;SDS011;61127;55.826;37.046;2023-06-26T09:44:27;6.40;;;5.40;;
70320;SDS011;61127;55.826;37.046;2023-06-26T09:46:56;13.35;;;5.68;;
70320;SDS011;61127;55.826;37.046;2023-06-26T09:49:23;10.25;;;5.78;;
70320;SDS011;61127;55.826;37.046;2023-06-26T09:51:49;8.70;;;5.38;;
70320;SDS011;61127;55.826;37.046;2023-06-26T09:54:16;6.90;;;5.07;;
70320;SDS011;61127;55.826;37.046;2023-06-26T09:56:45;7.95;;;5.47;;
70320;SDS011;61127;55.826;37.046;2023-06-26T09:59:11;7.25;;;5.35;;
70320;SDS011;61127;55.826;37.046;2023-06-26T10:01:41;7.82;;;5.38;;
70320;SDS011;61127;55.826;37.046;2023-06-26T10:04:10;10.00;;;5.15;;
70320;SDS011;61127;55.826;37.046;2023-06-26T10:06:38;8.73;;;5.30;;
70320;SDS011;61127;55.826;37.046;2023-06-26T10:09:09;7.50;;;5.70;;
70320;SDS011;61127;55.826;37.046;2023-06-26T10:14:14;9.27;;;5.50;;
70320;SDS011;61127;55.826;37.046;2023-06-26T10:16:41;8.77;;;5.63;;
70320;SDS011;61127;55.826;37.046;2023-06-26T10:19:10;8.27;;;5.70;;
70320;SDS011;61127;55.826;37.046;2023-06-26T10:21:38;8.98;;;5.60;;
70320;SDS011;61127;55.826;37.046;2023-06-26T10:24:06;15.73;;;6.00;;
70320;SDS011;61127;55.826;37.046;2023-06-26T10:26:35;11.63;;;4.90;;
70320;SDS011;61127;55.826;37.046;2023-06-26T10:29:09;12.85;;;5.82;;
70320;SDS011;61127;55.826;37.046;2023-06-26T10:31:36;11.53;;;5.70;;
70320;SDS011;61127;55.826;37.046;2023-06-26T10:34:03;7.72;;;5.03;;
70320;SDS011;61127;55.826;37.046;2023-06-26T10:36:31;10.07;;;5.80;;
70320;SDS011;61127;55.826;37.046;2023-06-26T10:38:58;12.02;;;5.80;;
70320;SDS011;61127;55.826;37.046;2023-06-26T10:41:35;12.38;;;6.22;;
70320;SDS011;61127;55.826;37.046;2023-06-26T10:44:15;18.20;;;6.53;;
70320;SDS011;61127;55.826;37.046;2023-06-26T10:49:28;12.13;;;5.43;;
70320;SDS011;61127;55.826;37.046;2023-06-26T10:51:55;11.75;;;6.20;;
70320;SDS011;61127;55.826;37.046;2023-06-26T10:54:27;19.30;;;6.72;;
70320;SDS011;61127;55.826;37.046;2023-06-26T10:56:55;15.17;;;6.37;;
70320;SDS011;61127;55.826;37.046;2023-06-26T10:59:28;17.60;;;7.10;;
70320;SDS011;61127;55.826;37.046;2023-06-26T11:02:00;13.05;;;6.15;;
70320;SDS011;61127;55.826;37.046;2023-06-26T11:07:23;11.38;;;6.43;;
70320;SDS011;61127;55.826;37.046;2023-06-26T11:12:42;8.55;;;5.63;;
70320;SDS011;61127;55.826;37.046;2023-06-26T11:15:10;11.48;;;5.63;;
70320;SDS011;61127;55.826;37.046;2023-06-26T11:17:38;9.68;;;5.78;;
70320;SDS011;61127;55.826;37.046;2023-06-26T11:20:06;8.40;;;5.70;;
70320;SDS011;61127;55.826;37.046;2023-06-26T11:22:40;18.10;;;6.40;;
70320;SDS011;61127;55.826;37.046;2023-06-26T11:25:07;12.15;;;5.90;;
70320;SDS011;61127;55.826;37.046;2023-06-26T11:30:11;8.77;;;6.10;;
70320;SDS011;61127;55.826;37.046;2023-06-26T11:32:49;11.02;;;5.90;;
70320;SDS011;61127;55.826;37.046;2023-06-26T11:35:22;11.60;;;6.47;;
70320;SDS011;61127;55.826;37.046;2023-06-26T11:37:55;14.40;;;6.22;;
70320;SDS011;61127;55.826;37.046;2023-06-26T11:40:22;15.27;;;5.97;;
70320;SDS011;61127;55.826;37.046;2023-06-26T11:42:53;9.52;;;5.63;;
70320;SDS011;61127;55.826;37.046;2023-06-26T11:45:19;14.18;;;6.07;;
70320;SDS011;61127;55.826;37.046;2023-06-26T11:47:46;9.67;;;5.60;;
70320;SDS011;61127;55.826;37.046;2023-06-26T11:50:15;9.48;;;5.85;;
70320;SDS011;61127;55.826;37.046;2023-06-26T11:52:43;10.07;;;5.70;;
70320;SDS011;61127;55.826;37.046;2023-06-26T11:55:10;9.30;;;5.53;;
70320;SDS011;61127;55.826;37.046;2023-06-26T11:57:37;9.18;;;5.60;;
70320;SDS011;61127;55.826;37.046;2023-06-26T12:00:10;8.10;;;5.73;;
70320;SDS011;61127;55.826;37.046;2023-06-26T12:02:41;8.82;;;6.30;;
70320;SDS011;61127;55.826;37.046;2023-06-26T12:05:12;8.05;;;6.00;;
70320;SDS011;61127;55.826;37.046;2023-06-26T12:07:40;8.02;;;6.82;;
70320;SDS011;61127;55.826;37.046;2023-06-26T12:10:09;8.82;;;6.40;;
70320;SDS011;61127;55.826;37.046;2023-06-26T12:12:37;8.57;;;7.20;;
70320;SDS011;61127;55.826;37.046;2023-06-26T12:15:04;8.57;;;7.13;;
70320;SDS011;61127;55.826;37.046;2023-06-26T12:17:32;8.85;;;7.38;;
70320;SDS011;61127;55.826;37.046;2023-06-26T12:19:58;9.52;;;7.65;;
70320;SDS011;61127;55.826;37.046;2023-06-26T12:22:24;10.30;;;7.47;;
70320;SDS011;61127;55.826;37.046;2023-06-26T12:24:59;9.13;;;7.82;;
70320;SDS011;61127;55.826;37.046;2023-06-26T12:27:25;11.82;;;7.75;;
70320;SDS011;61127;55.826;37.046;2023-06-26T12:29:52;9.60;;;7.95;;
70320;SDS011;61127;55.826;37.046;2023-06-26T12:32:23;9.90;;;7.97;;
70320;SDS011;61127;55.826;37.046;2023-06-26T12:34:51;9.65;;;8.63;;
70320;SDS011;61127;55.826;37.046;2023-06-26T12:37:18;9.25;;;7.82;;
70320;SDS011;61127;55.826;37.046;2023-06-26T12:39:45;8.57;;;7.50;;
70320;SDS011;61127;55.826;37.046;2023-06-26T12:44:44;8.52;;;7.05;;
70320;SDS011;61127;55.826;37.046;2023-06-26T12:47:11;8.38;;;7.10;;
70320;SDS011;61127;55.826;37.046;2023-06-26T12:49:40;8.80;;;6.20;;
70320;SDS011;61127;55.826;37.046;2023-06-26T12:52:09;8.68;;;6.70;;
70320;SDS011;61127;55.826;37.046;2023-06-26T12:54:37;8.55;;;6.72;;
70320;SDS011;61127;55.826;37.046;2023-06-26T12:57:04;9.38;;;5.82;;
70320;SDS011;61127;55.826;37.046;2023-06-26T12:59:31;10.75;;;6.32;;
70320;SDS011;61127;55.826;37.046;2023-06-26T13:01:58;8.57;;;6.70;;
70320;SDS011;61127;55.826;37.046;2023-06-26T13:04:27;7.38;;;6.68;;
70320;SDS011;61127;55.826;37.046;2023-06-26T13:06:53;8.07;;;6.43;;
70320;SDS011;61127;55.826;37.046;2023-06-26T13:09:25;8.35;;;6.18;;
70320;SDS011;61127;55.826;37.046;2023-06-26T13:11:52;8.57;;;6.25;;
70320;SDS011;61127;55.826;37.046;2023-06-26T13:14:18;9.83;;;6.33;;
70320;SDS011;61127;55.826;37.046;2023-06-26T13:16:44;8.18;;;6.93;;
70320;SDS011;61127;55.826;37.046;2023-06-26T13:19:10;7.00;;;6.18;;
70320;SDS011;61127;55.826;37.046;2023-06-26T13:21:36;6.90;;;6.13;;
70320;SDS011;61127;55.826;37.046;2023-06-26T13:24:02;7.13;;;6.13;;
70320;SDS011;61127;55.826;37.046;2023-06-26T13:26:29;7.35;;;5.88;;
70320;SDS011;61127;55.826;37.046;2023-06-26T13:28:55;6.88;;;5.78;;
70320;SDS011;61127;55.826;37.046;2023-06-26T13:31:22;8.27;;;5.80;;
70320;SDS011;61127;55.826;37.046;2023-06-26T13:33:48;7.97;;;5.83;;
70320;SDS011;61127;55.826;37.046;2023-06-26T13:36:18;6.77;;;5.60;;
70320;SDS011;61127;55.826;37.046;2023-06-26T13:38:45;6.75;;;5.40;;
70320;SDS011;61127;55.826;37.046;2023-06-26T13:41:12;7.03;;;5.20;;
70320;SDS011;61127;55.826;37.046;2023-06-26T13:43:37;8.70;;;5.50;;
70320;SDS011;61127;55.826;37.046;2023-06-26T13:46:03;6.30;;;5.47;;
70320;SDS011;61127;55.826;37.046;2023-06-26T13:48:29;7.85;;;5.40;;
70320;SDS011;61127;55.826;37.046;2023-06-26T13:50:57;7.05;;;5.00;;
70320;SDS011;61127;55.826;37.046;2023-06-26T13:53:24;7.40;;;5.07;;
70320;SDS011;61127;55.826;37.046;2023-06-26T13:55:50;8.10;;;5.37;;
70320;SDS011;61127;55.826;37.046;2023-06-26T13:58:16;8.30;;;5.53;;
70320;SDS011;61127;55.826;37.046;2023-06-26T14:00:41;8.27;;;5.32;;
70320;SDS011;61127;55.826;37.046;2023-06-26T14:03:09;9.15;;;5.88;;
70320;SDS011;61127;55.826;37.046;2023-06-26T14:05:36;7.47;;;4.90;;
70320;SDS011;61127;55.826;37.046;2023-06-26T14:08:03;8.10;;;5.32;;
70320;SDS011;61127;55.826;37.046;2023-06-26T14:10:30;6.63;;;5.10;;
70320;SDS011;61127;55.826;37.046;2023-06-26T14:12:56;7.65;;;5.60;;
70320;SDS011;61127;55.826;37.046;2023-06-26T14:15:22;6.57;;;5.20;;
70320;SDS011;61127;55.826;37.046;2023-06-26T14:17:48;8.47;;;5.30;;
70320;SDS011;61127;55.826;37.046;2023-06-26T14:20:16;8.15;;;5.40;;
70320;SDS011;61127;55.826;37.046;2023-06-26T14:22:43;7.70;;;5.40;;
70320;SDS011;61127;55.826;37.046;2023-06-26T14:25:10;8.38;;;5.45;;
70320;SDS011;61127;55.826;37.046;2023-06-26T14:27:38;9.95;;;5.40;;
70320;SDS011;61127;55.826;37.046;2023-06-26T14:30:04;8.57;;;5.63;;
70320;SDS011;61127;55.826;37.046;2023-06-26T14:32:35;10.55;;;5.07;;
70320;SDS011;61127;55.826;37.046;2023-06-26T14:35:02;8.48;;;5.60;;
70320;SDS011;61127;55.826;37.046;2023-06-26T14:37:35;11.07;;;5.45;;
70320;SDS011;61127;55.826;37.046;2023-06-26T14:40:02;12.32;;;5.20;;
70320;SDS011;61127;55.826;37.046;2023-06-26T14:42:32;9.20;;;5.43;;
70320;SDS011;61127;55.826;37.046;2023-06-26T14:44:59;11.75;;;5.28;;
70320;SDS011;61127;55.826;37.046;2023-06-26T14:47:24;10.02;;;5.68;;
70320;SDS011;61127;55.826;37.046;2023-06-26T14:49:50;9.35;;;5.15;;